createdAt,value
2023-11-11T00:01:08.178Z,3.43
2023-11-11T00:03:35.414Z,3.17
2023-11-11T00:06:02.085Z,2.97
2023-11-11T00:08:28.616Z,3.27
2023-11-11T00:10:55.142Z,3.70
2023-11-11T00:13:21.710Z,3.30
2023-11-11T00:15:48.320Z,3.67
2023-11-11T00:18:16.773Z,3.37
2023-11-11T00:20:43.299Z,4.17
2023-11-11T00:23:09.917Z,4.03
2023-11-11T00:25:36.456Z,3.77
2023-11-11T00:28:02.941Z,4.50
2023-11-11T00:30:31.091Z,3.53
2023-11-11T00:32:57.733Z,4.30
2023-11-11T00:35:24.328Z,3.97
2023-11-11T00:37:50.831Z,4.20
2023-11-11T00:40:17.357Z,3.80
2023-11-11T00:42:43.948Z,3.17
2023-11-11T00:45:10.653Z,3.40
2023-11-11T00:47:37.227Z,2.80
2023-11-11T00:50:05.511Z,2.63
2023-11-11T00:52:34.352Z,2.33
2023-11-11T00:55:01.600Z,2.00
2023-11-11T00:57:28.199Z,1.50
2023-11-11T00:59:54.704Z,1.47
2023-11-11T01:02:22.305Z,1.13
2023-11-11T01:04:48.809Z,1.30
2023-11-11T01:07:15.447Z,1.00
2023-11-11T01:09:42.263Z,1.33
2023-11-11T01:12:09.167Z,1.80
2023-11-11T01:14:38.664Z,1.83
2023-11-11T01:17:05.296Z,1.63
2023-11-11T01:19:31.827Z,1.53
2023-11-11T01:21:58.396Z,1.67
2023-11-11T01:24:25.007Z,2.00
2023-11-11T01:26:51.646Z,1.90
2023-11-11T01:29:18.165Z,1.93
2023-11-11T01:31:44.693Z,1.30
2023-11-11T01:34:11.229Z,2.00
2023-11-11T01:36:37.814Z,1.70
2023-11-11T01:39:05.522Z,1.30
2023-11-11T01:41:32.070Z,1.47
2023-11-11T01:43:58.594Z,2.07
2023-11-11T01:46:26.298Z,2.40
2023-11-11T01:48:53.312Z,2.33
2023-11-11T01:51:20.949Z,2.70
2023-11-11T01:53:47.839Z,2.47
2023-11-11T01:56:15.165Z,1.77
2023-11-11T01:58:43.074Z,1.93
2023-11-11T02:01:12.704Z,1.27
2023-11-11T02:03:40.564Z,1.20
2023-11-11T02:06:10.201Z,1.00
2023-11-11T02:08:37.196Z,1.23
2023-11-11T02:11:07.236Z,1.17
2023-11-11T02:13:38.033Z,0.87
2023-11-11T02:16:09.489Z,0.90
2023-11-11T02:18:36.367Z,0.90
2023-11-11T02:21:03.323Z,0.80
2023-11-11T02:23:37.590Z,0.77
2023-11-11T02:26:05.491Z,0.70
2023-11-11T02:28:32.277Z,0.80
2023-11-11T02:30:58.904Z,0.70
2023-11-11T02:33:25.919Z,0.67
2023-11-11T02:35:52.608Z,0.50
2023-11-11T02:38:19.120Z,0.77
2023-11-11T02:40:45.646Z,0.80
2023-11-11T02:43:12.193Z,0.60
2023-11-11T02:45:41.899Z,0.90
2023-11-11T02:48:08.577Z,0.80
2023-11-11T02:50:35.146Z,0.70
2023-11-11T02:53:01.648Z,0.67
2023-11-11T02:55:28.233Z,0.73
2023-11-11T02:57:54.757Z,0.67
2023-11-11T03:00:21.688Z,0.60
2023-11-11T03:02:48.343Z,1.30
2023-11-11T03:05:14.911Z,1.07
2023-11-11T03:07:41.421Z,0.73
2023-11-11T03:10:10.346Z,0.60
2023-11-11T03:12:37.281Z,0.70
2023-11-11T03:15:04.267Z,0.90
2023-11-11T03:17:31.615Z,0.87
2023-11-11T03:19:59.486Z,0.90
2023-11-11T03:22:26.776Z,0.77
2023-11-11T03:24:54.340Z,0.80
2023-11-11T03:27:20.892Z,1.33
2023-11-11T03:29:47.459Z,1.03
2023-11-11T03:32:14.015Z,1.17
2023-11-11T03:34:40.591Z,1.00
2023-11-11T03:37:08.224Z,1.07
2023-11-11T03:39:34.788Z,0.67
2023-11-11T03:42:01.329Z,1.40
2023-11-11T03:44:27.827Z,0.40
2023-11-11T03:46:55.831Z,0.47
2023-11-11T03:49:22.410Z,0.67
2023-11-11T03:51:49.020Z,0.43
2023-11-11T03:54:16.518Z,0.60
2023-11-11T03:56:44.378Z,0.50
2023-11-11T03:59:10.945Z,0.50
2023-11-11T04:01:37.572Z,0.30
2023-11-11T04:04:04.551Z,0.30
2023-11-11T04:06:33.535Z,0.50
2023-11-11T04:09:03.002Z,0.50
2023-11-11T04:11:29.544Z,0.70
2023-11-11T04:13:57.578Z,0.60
2023-11-11T04:16:26.781Z,0.60
2023-11-11T04:18:53.682Z,0.40
2023-11-11T04:21:20.388Z,0.50
2023-11-11T04:23:46.935Z,0.50
2023-11-11T04:26:13.431Z,0.30
2023-11-11T04:28:44.281Z,0.40
2023-11-11T04:31:17.589Z,0.40
2023-11-11T04:33:44.944Z,0.40
2023-11-11T04:36:11.510Z,0.50
2023-11-11T04:38:38.062Z,0.40
2023-11-11T04:41:05.550Z,0.40
2023-11-11T04:43:35.251Z,0.30
2023-11-11T04:46:03.279Z,0.30
2023-11-11T04:48:29.890Z,0.30
2023-11-11T04:50:56.736Z,0.50
2023-11-11T04:53:23.276Z,0.10
2023-11-11T04:55:49.851Z,0.20
2023-11-11T04:58:17.542Z,0.47
2023-11-11T05:00:45.657Z,0.20
2023-11-11T05:03:12.642Z,0.20
2023-11-11T05:05:39.207Z,0.30
2023-11-11T05:08:07.263Z,0.30
2023-11-11T05:10:34.303Z,0.40
2023-11-11T05:13:09.135Z,0.40
2023-11-11T05:15:47.984Z,0.20
2023-11-11T05:18:14.638Z,0.40
2023-11-11T05:20:41.584Z,0.20
2023-11-11T05:23:11.849Z,0.70
2023-11-11T05:25:38.566Z,1.27
2023-11-11T05:28:06.198Z,1.20
2023-11-11T05:30:32.760Z,0.77
2023-11-11T05:32:59.388Z,0.90
2023-11-11T05:35:25.963Z,0.63
2023-11-11T05:37:54.146Z,0.90
2023-11-11T05:40:21.037Z,0.93
2023-11-11T05:42:47.814Z,0.90
2023-11-11T05:45:19.432Z,0.33
2023-11-11T05:47:46.589Z,0.60
2023-11-11T05:50:13.924Z,0.60
2023-11-11T05:52:41.641Z,0.60
2023-11-11T05:55:08.805Z,0.57
2023-11-11T05:57:39.342Z,0.50
2023-11-11T06:00:11.763Z,0.60
2023-11-11T06:02:38.797Z,0.23
2023-11-11T06:05:06.103Z,0.43
2023-11-11T06:07:32.911Z,0.30
2023-11-11T06:09:59.498Z,0.30
2023-11-11T06:12:26.116Z,0.70
2023-11-11T06:14:53.093Z,0.40
2023-11-11T06:17:19.730Z,0.60
2023-11-11T06:19:46.313Z,0.67
2023-11-11T06:22:12.818Z,0.93
2023-11-11T06:24:39.394Z,0.60
2023-11-11T06:27:08.004Z,0.90
2023-11-11T06:29:35.522Z,0.57
2023-11-11T06:32:02.806Z,0.40
2023-11-11T06:34:29.313Z,0.93
2023-11-11T06:36:55.832Z,0.60
2023-11-11T06:39:22.370Z,0.60
2023-11-11T06:41:50.303Z,0.90
2023-11-11T06:44:16.875Z,0.60
2023-11-11T06:46:43.564Z,0.50
2023-11-11T06:49:10.124Z,0.40
2023-11-11T06:51:37.881Z,4.37
2023-11-11T06:54:04.991Z,2.00
2023-11-11T06:56:31.543Z,2.90
2023-11-11T06:58:58.106Z,1.10
2023-11-11T07:01:24.868Z,1.63
2023-11-11T07:03:52.118Z,5.43
2023-11-11T07:06:23.151Z,3.00
2023-11-11T07:08:53.658Z,2.10
2023-11-11T07:11:20.393Z,1.80
2023-11-11T07:13:47.057Z,2.57
2023-11-11T07:16:18.440Z,2.40
2023-11-11T07:18:46.105Z,0.93
2023-11-11T07:21:24.835Z,1.27
2023-11-11T07:23:54.584Z,0.80
2023-11-11T07:26:21.249Z,0.87
2023-11-11T07:28:48.880Z,0.67
2023-11-11T07:31:19.774Z,0.70
2023-11-11T07:33:46.909Z,0.53
2023-11-11T07:36:13.494Z,1.00
2023-11-11T07:38:41.926Z,0.97
2023-11-11T07:41:09.484Z,1.27
2023-11-11T07:43:36.303Z,1.33
2023-11-11T07:46:06.702Z,1.40
2023-11-11T07:48:34.254Z,1.50
2023-11-11T07:51:02.102Z,1.20
2023-11-11T07:53:28.667Z,0.80
2023-11-11T07:55:55.818Z,0.77
2023-11-11T08:00:52.453Z,0.60
2023-11-11T08:03:21.962Z,0.50
2023-11-11T08:05:48.499Z,0.63
2023-11-11T08:08:16.990Z,0.80
2023-11-11T08:10:45.501Z,0.60
2023-11-11T08:13:12.106Z,0.60
2023-11-11T08:15:39.009Z,0.97
2023-11-11T08:18:05.764Z,0.90
2023-11-11T08:20:32.371Z,0.80
2023-11-11T08:22:58.931Z,0.93
2023-11-11T08:25:25.501Z,0.97
2023-11-11T08:27:52.265Z,1.07
2023-11-11T08:30:18.833Z,0.80
2023-11-11T08:32:45.453Z,0.50
2023-11-11T08:35:15.870Z,0.50
2023-11-11T08:37:46.452Z,0.50
2023-11-11T08:40:13.828Z,0.63
2023-11-11T08:42:40.854Z,0.80
2023-11-11T08:45:11.387Z,0.90
2023-11-11T08:47:40.024Z,0.97
2023-11-11T08:50:09.845Z,1.10
2023-11-11T08:52:42.954Z,0.97
2023-11-11T08:55:11.273Z,0.83
2023-11-11T08:57:37.908Z,1.23
2023-11-11T09:00:08.525Z,0.90
2023-11-11T09:02:36.599Z,0.80
2023-11-11T09:05:05.235Z,1.00
2023-11-11T09:07:32.579Z,1.37
2023-11-11T09:09:59.198Z,1.27
2023-11-11T09:12:25.829Z,1.37
2023-11-11T09:14:54.773Z,0.73
2023-11-11T09:17:24.398Z,0.93
2023-11-11T09:19:54.134Z,0.77
2023-11-11T09:22:20.649Z,0.93
2023-11-11T09:24:47.227Z,0.93
2023-11-11T09:27:15.766Z,1.20
2023-11-11T09:29:43.091Z,1.10
2023-11-11T09:32:12.030Z,1.10
2023-11-11T09:34:43.067Z,0.70
2023-11-11T09:37:09.677Z,2.00
2023-11-11T09:39:36.192Z,2.53
2023-11-11T09:42:03.616Z,2.53
2023-11-11T09:47:03.176Z,2.87
2023-11-11T09:49:30.894Z,2.27
2023-11-11T09:51:58.129Z,2.87
2023-11-11T09:54:25.860Z,1.50
2023-11-11T09:59:25.979Z,1.30
2023-11-11T10:01:53.194Z,1.90
2023-11-11T10:04:20.363Z,1.63
2023-11-11T10:06:47.154Z,2.13
2023-11-11T10:09:18.171Z,2.10
2023-11-11T10:11:46.158Z,1.70
2023-11-11T10:14:16.692Z,1.50
2023-11-11T10:16:43.973Z,1.63
2023-11-11T10:19:15.558Z,1.33
2023-11-11T10:21:42.152Z,1.50
2023-11-11T10:24:11.165Z,1.27
2023-11-11T10:26:42.557Z,1.10
2023-11-11T10:29:09.628Z,1.27
2023-11-11T10:31:37.250Z,0.87
2023-11-11T10:34:04.899Z,1.20
2023-11-11T10:36:42.717Z,0.90
2023-11-11T10:39:13.212Z,0.80
2023-11-11T10:41:41.051Z,1.00
2023-11-11T10:44:08.587Z,1.10
2023-11-11T10:46:36.724Z,0.83
2023-11-11T10:49:05.157Z,1.00
2023-11-11T10:51:32.387Z,1.07
2023-11-11T10:54:05.883Z,0.80
2023-11-11T10:56:33.785Z,0.70
2023-11-11T10:59:06.182Z,1.10
2023-11-11T11:01:34.283Z,1.57
2023-11-11T11:04:01.974Z,1.80
2023-11-11T11:06:52.773Z,1.67
2023-11-11T11:10:02.961Z,1.07
2023-11-11T11:12:56.384Z,0.80
2023-11-11T11:15:23.086Z,1.07
2023-11-11T11:17:52.348Z,2.07
2023-11-11T11:20:26.741Z,1.57
2023-11-11T11:23:00.883Z,0.70
2023-11-11T11:25:44.847Z,0.30
2023-11-11T11:28:16.120Z,0.40
2023-11-11T11:30:55.364Z,0.40
2023-11-11T11:33:28.864Z,1.20
2023-11-11T11:36:04.350Z,0.10
2023-11-11T11:38:37.217Z,0.20
2023-11-11T11:41:25.148Z,0.10
2023-11-11T11:43:54.868Z,0.40
2023-11-11T11:46:22.137Z,0.40
2023-11-11T11:48:50.866Z,0.30
2023-11-11T11:51:20.322Z,0.30
2023-11-11T11:53:49.206Z,0.33
2023-11-11T11:56:33.488Z,0.10
2023-11-11T11:59:02.967Z,0.40
2023-11-11T12:01:32.487Z,0.30
2023-11-11T12:04:01.508Z,0.30
2023-11-11T12:06:28.621Z,0.20
2023-11-11T12:09:01.435Z,0.30
2023-11-11T12:11:30.654Z,0.73
2023-11-11T12:14:10.262Z,0.97
2023-11-11T12:16:52.994Z,0.30
2023-11-11T12:19:35.199Z,0.10
2023-11-11T12:22:06.237Z,0.10
2023-11-11T12:24:35.198Z,0.50
2023-11-11T12:27:03.495Z,0.10
2023-11-11T12:29:37.868Z,0.20
2023-11-11T12:32:05.352Z,0.30
2023-11-11T12:34:32.245Z,0.20
2023-11-11T12:36:58.980Z,0.23
2023-11-11T12:39:27.768Z,0.20
2023-11-11T12:41:58.056Z,0.20
2023-11-11T12:44:26.165Z,0.23
2023-11-11T12:46:54.086Z,0.17
2023-11-11T12:49:27.076Z,0.10
2023-11-11T12:51:55.601Z,0.13
2023-11-11T12:54:34.527Z,0.13
2023-11-11T12:57:02.531Z,0.43
2023-11-11T12:59:29.114Z,0.73
2023-11-11T13:02:05.547Z,0.37
2023-11-11T13:04:32.963Z,0.10
2023-11-11T13:07:01.196Z,0.33
2023-11-11T13:09:45.953Z,0.00
2023-11-11T13:12:15.118Z,0.10
2023-11-11T13:14:50.302Z,0.10
2023-11-11T13:17:29.525Z,0.10
2023-11-11T13:19:59.765Z,0.10
2023-11-11T13:22:29.096Z,0.10
2023-11-11T13:24:56.575Z,0.20
2023-11-11T13:27:23.123Z,0.07
2023-11-11T13:29:49.672Z,0.10
2023-11-11T13:32:16.625Z,0.10
2023-11-11T13:34:44.510Z,0.13
2023-11-11T13:37:23.332Z,0.20
2023-11-11T13:39:55.781Z,0.30
2023-11-11T13:42:23.410Z,0.27
2023-11-11T13:44:50.613Z,0.30
2023-11-11T13:47:18.621Z,0.13
2023-11-11T13:49:45.202Z,0.10
2023-11-11T13:52:11.767Z,0.30
2023-11-11T13:54:38.406Z,0.10
2023-11-11T13:57:05.205Z,0.10
2023-11-11T13:59:31.745Z,0.20
2023-11-11T14:01:59.144Z,0.20
2023-11-11T14:04:25.990Z,0.17
2023-11-11T14:06:52.563Z,0.10
2023-11-11T14:09:19.071Z,0.20
2023-11-11T14:11:45.919Z,0.20
2023-11-11T14:14:12.468Z,0.47
2023-11-11T14:16:39.156Z,0.30
2023-11-11T14:19:11.962Z,0.10
2023-11-11T14:21:38.553Z,0.50
2023-11-11T14:24:07.092Z,0.70
2023-11-11T14:26:33.633Z,0.50
2023-11-11T14:29:00.587Z,0.60
2023-11-11T14:31:28.226Z,0.60
2023-11-11T14:34:01.276Z,0.50
2023-11-11T14:36:37.112Z,0.63
2023-11-11T14:39:08.904Z,0.40
2023-11-11T14:41:35.675Z,0.40
2023-11-11T14:44:03.127Z,1.43
2023-11-11T14:46:33.370Z,0.50
2023-11-11T14:48:59.968Z,0.37
2023-11-11T14:51:31.324Z,0.50
2023-11-11T14:53:57.854Z,0.30
2023-11-11T14:56:24.426Z,0.80
2023-11-11T14:58:51.561Z,0.30
2023-11-11T15:01:18.233Z,0.30
2023-11-11T15:03:46.065Z,1.10
2023-11-11T15:06:12.688Z,1.63
2023-11-11T15:08:39.902Z,0.60
2023-11-11T15:11:07.419Z,0.57
2023-11-11T15:13:35.407Z,0.70
2023-11-11T15:16:02.020Z,1.10
2023-11-11T15:18:29.281Z,0.77
2023-11-11T15:20:55.819Z,1.37
2023-11-11T15:23:26.060Z,1.17
2023-11-11T15:25:56.473Z,1.13
2023-11-11T15:28:23.058Z,1.40
2023-11-11T15:30:52.538Z,1.73
2023-11-11T15:33:19.259Z,2.00
2023-11-11T15:35:46.268Z,0.60
2023-11-11T15:38:13.356Z,1.40
2023-11-11T15:40:40.443Z,1.43
2023-11-11T15:43:07.333Z,1.77
2023-11-11T15:45:33.938Z,1.37
2023-11-11T15:48:00.567Z,0.60
2023-11-11T15:50:27.477Z,1.37
2023-11-11T15:52:54.031Z,0.60
2023-11-11T15:55:22.025Z,1.43
2023-11-11T15:57:48.580Z,1.33
2023-11-11T16:00:17.490Z,1.13
2023-11-11T16:02:44.093Z,0.93
2023-11-11T16:05:10.962Z,1.10
2023-11-11T16:07:37.689Z,0.90
2023-11-11T16:10:05.303Z,0.90
2023-11-11T16:12:31.813Z,1.23
2023-11-11T16:15:00.141Z,2.10
2023-11-11T16:17:28.352Z,3.17
2023-11-11T16:19:57.271Z,3.00
2023-11-11T16:22:25.313Z,2.03
2023-11-11T16:24:52.610Z,2.67
2023-11-11T16:27:19.152Z,2.73
2023-11-11T16:29:45.725Z,1.90
2023-11-11T16:32:12.328Z,2.27
2023-11-11T16:34:38.965Z,1.73
2023-11-11T16:37:05.557Z,2.20
2023-11-11T16:39:45.413Z,2.70
2023-11-11T16:42:13.893Z,2.53
2023-11-11T16:44:43.867Z,2.77
2023-11-11T16:47:11.264Z,3.67
2023-11-11T16:49:38.355Z,3.30
2023-11-11T16:52:06.162Z,2.60
2023-11-11T16:54:33.058Z,2.77
2023-11-11T16:56:59.606Z,5.70
2023-11-11T16:59:27.226Z,3.47
2023-11-11T17:01:53.894Z,3.00
2023-11-11T17:04:20.567Z,3.73
2023-11-11T17:06:47.471Z,3.13
2023-11-11T17:09:14.041Z,1.10
2023-11-11T17:11:47.700Z,1.40
2023-11-11T17:14:15.717Z,2.53
2023-11-11T17:16:44.273Z,2.90
2023-11-11T17:19:11.214Z,3.17
2023-11-11T17:21:37.777Z,4.17
2023-11-11T17:24:05.493Z,2.93
2023-11-11T17:26:32.700Z,2.70
2023-11-11T17:28:59.263Z,1.40
2023-11-11T17:31:25.795Z,1.07
2023-11-11T17:33:57.163Z,1.93
2023-11-11T17:36:28.585Z,1.53
2023-11-11T17:38:55.099Z,1.40
2023-11-11T17:41:22.225Z,1.37
2023-11-11T17:43:48.975Z,1.87
2023-11-11T17:46:20.628Z,2.43
2023-11-11T17:48:49.033Z,2.10
2023-11-11T17:51:19.414Z,1.40
2023-11-11T17:53:46.737Z,2.03
2023-11-11T17:56:24.648Z,2.40
2023-11-11T17:58:52.823Z,2.53
2023-11-11T18:01:20.150Z,1.93
2023-11-11T18:03:46.910Z,2.13
2023-11-11T18:06:13.947Z,1.90
2023-11-11T18:08:40.743Z,2.73
2023-11-11T18:11:08.704Z,2.70
2023-11-11T18:13:36.394Z,2.80
2023-11-11T18:16:03.318Z,2.60
2023-11-11T18:18:30.833Z,2.03
2023-11-11T18:20:57.398Z,2.00
2023-11-11T18:23:24.461Z,1.93
2023-11-11T18:25:51.249Z,2.90
2023-11-11T18:28:17.849Z,2.63
2023-11-11T18:30:46.566Z,15.53
2023-11-11T18:33:13.080Z,13.67
2023-11-11T18:35:40.104Z,10.07
2023-11-11T18:38:06.614Z,4.83
2023-11-11T18:40:33.164Z,2.20
2023-11-11T18:43:01.280Z,2.57
2023-11-11T18:45:27.813Z,2.30
2023-11-11T18:47:54.386Z,2.63
2023-11-11T18:50:25.806Z,3.00
2023-11-11T18:52:53.498Z,3.17
2023-11-11T18:55:20.037Z,2.67
2023-11-11T18:57:46.553Z,1.50
2023-11-11T19:00:15.400Z,2.90
2023-11-11T19:02:42.143Z,2.93
2023-11-11T19:05:10.080Z,1.57
2023-11-11T19:07:37.510Z,6.73
2023-11-11T19:10:05.228Z,4.20
2023-11-11T19:12:31.785Z,3.03
2023-11-11T19:14:58.339Z,2.40
2023-11-11T19:17:24.874Z,2.43
2023-11-11T19:19:52.445Z,2.50
2023-11-11T19:22:19.242Z,2.53
2023-11-11T19:24:45.745Z,3.10
2023-11-11T19:27:12.300Z,3.47
2023-11-11T19:29:42.012Z,4.20
2023-11-11T19:32:09.256Z,4.63
2023-11-11T19:34:38.082Z,4.93
2023-11-11T19:37:04.855Z,2.90
2023-11-11T19:39:31.365Z,2.53
2023-11-11T19:41:59.124Z,2.93
2023-11-11T19:44:25.697Z,3.10
2023-11-11T19:46:52.669Z,2.20
2023-11-11T19:49:19.767Z,1.67
2023-11-11T19:51:46.290Z,2.60
2023-11-11T19:54:12.926Z,1.73
2023-11-11T19:56:40.188Z,2.20
2023-11-11T19:59:08.379Z,1.93
2023-11-11T20:01:36.182Z,2.00
2023-11-11T20:04:02.985Z,1.57
2023-11-11T20:06:29.678Z,1.80
2023-11-11T20:08:56.232Z,3.03
2023-11-11T20:11:23.683Z,2.73
2023-11-11T20:13:50.667Z,1.83
2023-11-11T20:16:17.303Z,1.67
2023-11-11T20:18:43.910Z,1.50
2023-11-11T20:21:11.519Z,1.80
2023-11-11T20:23:38.156Z,1.40
2023-11-11T20:26:04.843Z,2.00
2023-11-11T20:28:31.758Z,1.17
2023-11-11T20:30:58.324Z,1.53
2023-11-11T20:33:25.196Z,1.87
2023-11-11T20:35:53.515Z,1.63
2023-11-11T20:38:20.426Z,1.47
2023-11-11T20:40:47.426Z,0.90
2023-11-11T20:43:14.252Z,1.50
2023-11-11T20:45:42.701Z,1.67
2023-11-11T20:48:09.296Z,1.80
2023-11-11T20:50:36.044Z,1.17
2023-11-11T20:53:02.718Z,2.27
2023-11-11T20:55:32.600Z,1.80
2023-11-11T20:57:59.643Z,1.07
2023-11-11T21:00:27.891Z,1.50
2023-11-11T21:02:54.894Z,1.33
2023-11-11T21:05:23.805Z,1.97
2023-11-11T21:07:50.386Z,1.20
2023-11-11T21:10:17.346Z,1.03
2023-11-11T21:12:46.007Z,0.73
2023-11-11T21:15:12.647Z,0.90
2023-11-11T21:17:39.380Z,0.93
2023-11-11T21:20:09.586Z,1.20
2023-11-11T21:22:40.012Z,1.00
2023-11-11T21:25:07.554Z,1.23
2023-11-11T21:27:34.065Z,1.00
2023-11-11T21:30:00.638Z,1.50
2023-11-11T21:32:28.190Z,0.90
2023-11-11T21:34:54.985Z,1.57
2023-11-11T21:37:21.567Z,1.67
2023-11-11T21:39:48.078Z,1.67
2023-11-11T21:42:14.610Z,1.13
2023-11-11T21:44:41.119Z,1.17
2023-11-11T21:47:08.700Z,1.03
2023-11-11T21:49:35.268Z,1.10
2023-11-11T21:52:01.838Z,1.30
2023-11-11T21:54:28.377Z,1.00
2023-11-11T21:56:54.902Z,0.73
2023-11-11T21:59:21.806Z,0.70
2023-11-11T22:01:48.444Z,1.10
2023-11-11T22:04:15.300Z,1.03
2023-11-11T22:06:41.822Z,0.87
2023-11-11T22:09:08.425Z,0.60
2023-11-11T22:11:37.899Z,0.80
2023-11-11T22:14:05.720Z,1.43
2023-11-11T22:16:32.335Z,0.90
2023-11-11T22:18:59.361Z,0.83
2023-11-11T22:21:25.903Z,0.77
2023-11-11T22:23:53.862Z,0.90
2023-11-11T22:26:20.692Z,0.53
2023-11-11T22:28:47.224Z,0.90
2023-11-11T22:31:14.046Z,0.80
2023-11-11T22:33:40.667Z,0.50
2023-11-11T22:36:09.905Z,0.97
2023-11-11T22:38:37.561Z,0.43
2023-11-11T22:41:05.911Z,1.00
2023-11-11T22:43:36.595Z,0.60
2023-11-11T22:46:04.192Z,1.03
2023-11-11T22:48:30.894Z,0.77
2023-11-11T22:50:57.965Z,0.80
2023-11-11T22:53:27.756Z,1.80
2023-11-11T22:55:54.321Z,1.13
2023-11-11T22:58:21.079Z,0.60
2023-11-11T23:00:49.041Z,0.93
2023-11-11T23:03:16.497Z,0.67
2023-11-11T23:05:46.460Z,0.43
2023-11-11T23:08:14.112Z,0.80
2023-11-11T23:10:41.143Z,0.87
2023-11-11T23:13:10.379Z,0.57
2023-11-11T23:15:37.944Z,0.57
2023-11-11T23:18:04.644Z,0.47
2023-11-11T23:20:31.836Z,0.70
2023-11-11T23:22:58.488Z,0.50
2023-11-11T23:25:25.287Z,0.50
2023-11-11T23:27:52.196Z,2.43
2023-11-11T23:30:18.753Z,1.20
2023-11-11T23:32:45.395Z,1.40
2023-11-11T23:35:12.013Z,0.50
2023-11-11T23:37:38.522Z,0.50
2023-11-11T23:40:06.382Z,0.70
2023-11-11T23:42:32.881Z,0.23
2023-11-11T23:45:01.630Z,0.40
2023-11-11T23:47:28.625Z,0.30
2023-11-11T23:49:55.381Z,0.50
2023-11-11T23:52:22.585Z,3.23
2023-11-11T23:54:49.149Z,1.30
2023-11-11T23:57:15.637Z,0.40
2023-11-11T23:59:42.166Z,0.23
